Time;durP1;ratioP1;P1;durP2;ratioP2;P2;SDS_P1;SDS_P2;PMS_P1;PMS_P2;Temp;Humidity;BMP_temperature;BMP_pressure;BME280_temperature;BME280_humidity;BME280_pressure;Samples;Min_cycle;Max_cycle;Signal;HPM_P1;HPM_P2
2021/09/22 00:01:23;;;;;;;7.60;5.03;;;12.90;81.70;;;;;;4922101;29;20175;-72
2021/09/22 00:03:48;;;;;;;7.93;5.03;;;12.90;82.10;;;;;;4914768;29;20167;-74
2021/09/22 00:06:14;;;;;;;7.50;4.90;;;12.90;82.50;;;;;;4914788;29;20170;-75
2021/09/22 00:08:40;;;;;;;14.20;5.77;;;12.80;82.70;;;;;;4912712;29;20181;-76
2021/09/22 00:11:14;;;;;;;6.80;5.60;;;12.80;82.70;;;;;;4922546;29;20195;-74
2021/09/22 00:13:40;;;;;;;9.20;5.30;;;12.80;82.90;;;;;;4931868;29;20174;-75
2021/09/22 00:16:06;;;;;;;10.57;6.40;;;12.80;83.20;;;;;;4925904;29;20501;-74
2021/09/22 00:18:32;;;;;;;10.20;6.53;;;12.80;83.40;;;;;;4927958;29;20557;-72
2021/09/22 00:20:58;;;;;;;8.67;5.23;;;12.70;83.30;;;;;;4922953;29;20179;-73
2021/09/22 00:23:25;;;;;;;9.33;5.70;;;12.70;83.30;;;;;;4926108;29;20498;-72
2021/09/22 00:25:50;;;;;;;8.57;5.60;;;12.70;83.60;;;;;;4927813;29;20182;-75
2021/09/22 00:28:16;;;;;;;10.60;6.03;;;12.70;83.60;;;;;;4924849;29;20418;-75
2021/09/22 00:30:42;;;;;;;9.83;7.47;;;12.70;83.50;;;;;;4924883;29;20266;-74
2021/09/22 00:33:07;;;;;;;7.53;5.80;;;12.70;83.60;;;;;;4924579;29;20194;-74
2021/09/22 00:35:35;;;;;;;10.47;5.60;;;12.70;83.50;;;;;;4926758;29;20290;-72
2021/09/22 00:38:01;;;;;;;6.70;5.33;;;12.70;83.40;;;;;;4946183;29;20202;-72
2021/09/22 00:40:28;;;;;;;8.93;5.77;;;12.70;83.40;;;;;;4924995;29;20418;-73
2021/09/22 00:42:57;;;;;;;9.30;5.13;;;12.60;83.60;;;;;;4925522;29;20170;-73
2021/09/22 00:45:24;;;;;;;8.53;5.57;;;12.60;83.80;;;;;;4924129;29;20912;-73
2021/09/22 00:47:50;;;;;;;8.53;6.20;;;12.50;83.80;;;;;;4926422;29;20454;-74
2021/09/22 00:50:23;;;;;;;8.30;5.57;;;12.50;83.80;;;;;;4903840;29;20175;-73
2021/09/22 00:52:51;;;;;;;7.07;5.40;;;12.40;84.20;;;;;;4922422;29;20418;-75
2021/09/22 00:55:18;;;;;;;9.60;6.07;;;12.40;84.70;;;;;;4923196;29;20548;-74
2021/09/22 00:57:49;;;;;;;9.17;5.20;;;12.30;84.90;;;;;;4919419;29;20470;-75
2021/09/22 01:00:16;;;;;;;9.57;6.10;;;12.20;85.20;;;;;;4928089;29;20419;-73
2021/09/22 01:02:47;;;;;;;8.20;5.57;;;12.20;85.70;;;;;;4923521;29;20821;-73
2021/09/22 01:05:21;;;;;;;7.77;5.97;;;12.10;86.10;;;;;;4923863;29;20439;-72
2021/09/22 01:07:48;;;;;;;8.10;4.93;;;12.10;86.50;;;;;;4917874;29;20418;-73
2021/09/22 01:10:15;;;;;;;7.67;5.87;;;12.10;86.50;;;;;;4915204;29;20425;-72
2021/09/22 01:12:41;;;;;;;8.90;6.20;;;12.10;86.50;;;;;;4916259;29;20908;-73
2021/09/22 01:15:07;;;;;;;9.27;6.07;;;12.10;86.60;;;;;;4915997;29;20445;-73
2021/09/22 01:17:33;;;;;;;8.50;5.53;;;12.00;86.30;;;;;;4916024;29;20206;-73
2021/09/22 01:20:08;;;;;;;8.43;5.37;;;12.00;86.60;;;;;;4914390;29;20419;-72
2021/09/22 01:22:35;;;;;;;5.90;5.00;;;12.00;86.60;;;;;;4914758;29;20418;-73
2021/09/22 01:25:05;;;;;;;8.30;5.53;;;11.90;86.40;;;;;;4914557;29;21043;-73
2021/09/22 01:27:31;;;;;;;9.13;5.23;;;11.90;86.60;;;;;;4915938;29;20502;-73
2021/09/22 01:29:59;;;;;;;7.10;4.93;;;11.90;86.70;;;;;;4914461;29;20462;-73
2021/09/22 01:32:28;;;;;;;7.73;5.37;;;11.90;86.40;;;;;;4914950;29;20475;-73
2021/09/22 01:34:57;;;;;;;10.87;5.80;;;11.90;86.40;;;;;;4914952;29;20449;-73
2021/09/22 01:37:37;;;;;;;9.40;5.67;;;11.90;86.80;;;;;;4914916;29;20494;-73
2021/09/22 01:40:23;;;;;;;6.70;4.93;;;11.90;86.80;;;;;;4915464;29;20422;-72
2021/09/22 01:42:50;;;;;;;10.37;6.03;;;11.90;86.80;;;;;;4914501;29;20453;-73
2021/09/22 01:45:17;;;;;;;8.47;5.60;;;11.90;87.30;;;;;;4915400;29;20431;-73
2021/09/22 01:47:44;;;;;;;7.37;5.37;;;11.90;87.00;;;;;;4913985;29;20430;-73
2021/09/22 01:50:14;;;;;;;8.30;5.70;;;11.90;86.90;;;;;;4913995;29;20434;-73
2021/09/22 01:52:43;;;;;;;8.57;5.53;;;11.90;86.70;;;;;;4914193;29;20446;-72
2021/09/22 01:55:16;;;;;;;10.73;4.97;;;11.90;86.80;;;;;;4913864;29;20461;-73
2021/09/22 01:57:44;;;;;;;14.23;6.20;;;11.90;86.80;;;;;;4913908;29;20578;-73
2021/09/22 02:00:15;;;;;;;11.50;5.17;;;12.00;86.80;;;;;;4913850;29;20418;-72
2021/09/22 02:02:40;;;;;;;10.27;6.30;;;12.00;86.50;;;;;;4915503;29;20418;-72
2021/09/22 02:05:23;;;;;;;7.03;5.40;;;12.00;86.80;;;;;;4913512;29;20496;-73
2021/09/22 02:08:05;;;;;;;8.20;5.77;;;11.90;86.50;;;;;;4913648;29;20430;-73
2021/09/22 02:10:32;;;;;;;8.93;5.83;;;11.90;86.80;;;;;;4913298;29;20419;-72
2021/09/22 02:12:57;;;;;;;8.17;4.77;;;11.80;87.00;;;;;;4913529;29;20181;-71
2021/09/22 02:15:24;;;;;;;7.07;5.87;;;11.80;87.30;;;;;;4913559;29;20430;-72
2021/09/22 02:18:08;;;;;;;8.27;4.90;;;11.80;87.80;;;;;;4916045;29;20461;-72
2021/09/22 02:20:36;;;;;;;10.73;6.40;;;11.70;87.50;;;;;;4920558;29;20398;-72
2021/09/22 02:23:13;;;;;;;12.43;6.37;;;11.70;87.90;;;;;;4936029;29;20424;-73
2021/09/22 02:25:40;;;;;;;8.37;5.70;;;11.70;88.30;;;;;;4917355;29;20478;-72
2021/09/22 02:28:06;;;;;;;12.17;5.40;;;11.70;88.40;;;;;;4914072;29;20433;-73
2021/09/22 02:30:35;;;;;;;7.70;5.27;;;11.70;88.30;;;;;;4912816;29;20809;-74
2021/09/22 02:33:01;;;;;;;11.67;7.00;;;11.70;88.30;;;;;;4912651;29;20510;-74
2021/09/22 02:35:29;;;;;;;8.43;5.90;;;11.70;88.00;;;;;;4913135;29;20446;-74
2021/09/22 02:38:12;;;;;;;7.93;5.47;;;11.70;88.00;;;;;;4913352;29;20517;-73
2021/09/22 02:40:42;;;;;;;8.97;6.23;;;11.70;88.00;;;;;;4913175;29;20901;-74
2021/09/22 02:43:10;;;;;;;9.10;5.80;;;11.60;88.10;;;;;;4913834;29;20425;-73
2021/09/22 02:45:35;;;;;;;8.97;5.77;;;11.70;88.30;;;;;;4913369;29;20466;-74
2021/09/22 02:48:01;;;;;;;13.10;7.10;;;11.60;88.20;;;;;;4912371;29;20450;-73
2021/09/22 02:50:28;;;;;;;8.07;5.60;;;11.60;88.20;;;;;;4912750;29;20238;-73
2021/09/22 02:52:54;;;;;;;12.23;6.50;;;11.70;88.30;;;;;;4912855;29;20437;-74
2021/09/22 02:55:20;;;;;;;12.80;7.13;;;11.60;87.90;;;;;;4912582;29;20500;-73
2021/09/22 02:57:48;;;;;;;10.77;5.70;;;11.60;88.10;;;;;;4912628;29;20576;-73
2021/09/22 03:00:14;;;;;;;11.20;5.80;;;11.60;88.00;;;;;;4912743;29;20422;-73
2021/09/22 03:02:40;;;;;;;8.27;5.70;;;11.50;88.30;;;;;;4912758;29;20171;-73
2021/09/22 03:05:07;;;;;;;10.60;5.63;;;11.50;88.50;;;;;;4912644;29;20469;-73
2021/09/22 03:07:33;;;;;;;10.40;6.10;;;11.50;88.80;;;;;;4912546;29;20908;-73
2021/09/22 03:09:59;;;;;;;8.80;5.83;;;11.50;89.00;;;;;;4912784;29;20434;-73
2021/09/22 03:12:25;;;;;;;9.33;5.83;;;11.40;88.80;;;;;;4912680;29;20326;-73
2021/09/22 03:14:54;;;;;;;10.43;6.53;;;11.50;88.90;;;;;;4912436;29;20194;-74
2021/09/22 03:17:21;;;;;;;8.57;5.40;;;11.50;88.90;;;;;;4912309;29;20285;-73
2021/09/22 03:19:47;;;;;;;10.70;6.90;;;11.50;88.90;;;;;;4913692;29;20434;-73
2021/09/22 03:22:16;;;;;;;10.93;5.70;;;11.50;88.80;;;;;;4912486;29;20446;-74
2021/09/22 03:25:08;;;;;;;13.13;6.00;;;11.40;88.70;;;;;;4912904;29;20449;-73
2021/09/22 03:27:34;;;;;;;7.60;5.67;;;11.40;88.80;;;;;;4912456;29;20422;-74
2021/09/22 03:30:01;;;;;;;8.77;6.27;;;11.40;88.80;;;;;;4912324;29;20446;-73
2021/09/22 03:32:27;;;;;;;9.20;6.83;;;11.40;88.90;;;;;;4912617;29;20517;-74
2021/09/22 03:34:52;;;;;;;8.77;6.40;;;11.40;88.80;;;;;;4912520;29;20463;-74
2021/09/22 03:37:18;;;;;;;9.90;6.30;;;11.40;88.80;;;;;;4913912;29;20672;-73
2021/09/22 03:39:44;;;;;;;15.63;5.77;;;11.30;89.00;;;;;;4913452;29;20171;-74
2021/09/22 03:42:09;;;;;;;11.80;5.80;;;11.30;89.30;;;;;;4912393;29;20304;-73
2021/09/22 03:44:35;;;;;;;7.70;5.40;;;11.30;89.30;;;;;;4913621;29;20194;-75
2021/09/22 03:47:01;;;;;;;10.60;6.20;;;11.20;90.00;;;;;;4915600;29;20178;-75
2021/09/22 03:49:27;;;;;;;8.60;5.60;;;11.30;89.40;;;;;;4916138;29;20183;-72
2021/09/22 03:51:59;;;;;;;9.57;6.40;;;11.20;89.30;;;;;;4916197;29;20238;-74
2021/09/22 03:54:24;;;;;;;10.27;6.20;;;11.20;89.20;;;;;;4916157;29;20454;-72
2021/09/22 03:56:52;;;;;;;9.50;6.10;;;11.20;89.00;;;;;;4915692;29;20596;-73
2021/09/22 03:59:18;;;;;;;7.13;5.17;;;11.20;89.10;;;;;;4915265;29;20647;-72
2021/09/22 04:01:45;;;;;;;7.57;4.77;;;11.10;89.20;;;;;;4915951;29;20210;-75
2021/09/22 04:04:11;;;;;;;10.40;7.10;;;11.00;89.20;;;;;;4916078;29;20482;-74
2021/09/22 04:06:37;;;;;;;8.23;6.10;;;10.90;89.30;;;;;;4915660;29;20599;-75
2021/09/22 04:09:03;;;;;;;9.00;5.97;;;10.90;90.00;;;;;;4916026;29;20501;-75
2021/09/22 04:11:30;;;;;;;10.80;6.27;;;10.90;90.10;;;;;;4915159;29;20446;-75
2021/09/22 04:13:57;;;;;;;7.27;5.67;;;10.80;90.20;;;;;;4915841;29;20443;-75
2021/09/22 04:16:23;;;;;;;6.40;5.23;;;10.80;90.40;;;;;;4916359;29;20804;-72
2021/09/22 04:18:48;;;;;;;8.80;5.80;;;10.80;90.30;;;;;;4915717;29;20731;-73
2021/09/22 04:21:15;;;;;;;9.20;5.77;;;10.80;90.40;;;;;;4915302;29;20607;-75
2021/09/22 04:23:41;;;;;;;7.13;4.73;;;10.70;90.30;;;;;;4915396;29;20419;-75
2021/09/22 04:26:07;;;;;;;7.30;5.03;;;10.70;90.40;;;;;;4915816;29;20633;-74
2021/09/22 04:28:34;;;;;;;9.10;6.60;;;10.70;90.40;;;;;;4899850;29;20426;-74
2021/09/22 04:31:18;;;;;;;6.43;4.87;;;10.70;90.40;;;;;;4916522;29;20802;-73
2021/09/22 04:34:02;;;;;;;11.03;6.20;;;10.70;90.30;;;;;;4917196;29;20937;-76
2021/09/22 04:36:46;;;;;;;8.97;5.50;;;10.80;90.30;;;;;;4919883;29;20437;-75
2021/09/22 04:39:30;;;;;;;8.97;6.00;;;10.80;90.20;;;;;;4922073;29;20528;-75
2021/09/22 04:42:14;;;;;;;10.57;6.27;;;10.70;90.00;;;;;;4923203;29;20409;-76
2021/09/22 04:44:59;;;;;;;12.43;6.60;;;10.70;90.10;;;;;;4916333;29;20422;-74
2021/09/22 04:47:42;;;;;;;12.87;6.10;;;10.70;90.20;;;;;;4916845;29;20445;-75
2021/09/22 04:50:28;;;;;;;10.43;6.10;;;10.60;90.20;;;;;;4916906;29;20414;-74
2021/09/22 04:53:12;;;;;;;11.83;6.10;;;10.60;90.30;;;;;;4916415;29;20917;-74
2021/09/22 04:55:56;;;;;;;10.63;5.23;;;10.50;90.30;;;;;;4919562;29;20497;-74
2021/09/22 04:58:43;;;;;;;12.87;7.53;;;10.50;90.30;;;;;;4920561;29;20460;-74
2021/09/22 05:01:27;;;;;;;8.43;6.00;;;10.50;90.40;;;;;;4925556;29;20942;-75
2021/09/22 05:04:11;;;;;;;12.43;6.37;;;10.50;90.30;;;;;;4934419;29;20618;-73
2021/09/22 05:06:55;;;;;;;10.47;6.13;;;10.50;90.40;;;;;;4925610;29;20413;-73
2021/09/22 05:09:40;;;;;;;8.53;6.20;;;10.50;90.40;;;;;;4926222;29;20825;-74
2021/09/22 05:12:24;;;;;;;8.87;6.53;;;10.40;90.30;;;;;;4916458;29;20477;-73
2021/09/22 05:15:09;;;;;;;9.13;5.10;;;10.30;90.30;;;;;;4922794;29;20501;-73
2021/09/22 05:17:58;;;;;;;8.83;5.93;;;10.30;90.40;;;;;;4924843;29;20537;-73
2021/09/22 05:20:42;;;;;;;9.33;5.63;;;10.30;90.70;;;;;;4927559;29;20424;-73
2021/09/22 05:23:34;;;;;;;13.23;5.97;;;10.30;90.70;;;;;;4919105;29;20428;-73
2021/09/22 05:26:19;;;;;;;10.63;7.00;;;10.30;90.80;;;;;;4934750;29;20409;-73
2021/09/22 05:29:03;;;;;;;8.17;6.33;;;10.30;90.80;;;;;;4932957;29;20620;-73
2021/09/22 05:31:48;;;;;;;9.97;6.20;;;10.40;90.80;;;;;;4924575;29;20503;-73
2021/09/22 05:34:32;;;;;;;12.13;7.07;;;10.40;90.80;;;;;;4916900;29;20449;-73
2021/09/22 05:37:29;;;;;;;12.97;6.83;;;10.40;90.40;;;;;;4890508;29;20518;-73
2021/09/22 05:40:13;;;;;;;11.50;6.90;;;10.40;90.40;;;;;;4915420;29;20453;-74
2021/09/22 05:42:58;;;;;;;10.90;5.80;;;10.40;90.40;;;;;;4925625;29;20832;-72
2021/09/22 05:45:42;;;;;;;11.63;8.03;;;10.40;90.30;;;;;;4928721;29;20476;-73
2021/09/22 05:48:26;;;;;;;9.53;6.00;;;10.50;90.20;;;;;;4921597;29;20586;-73
2021/09/22 05:51:10;;;;;;;14.20;6.27;;;10.50;90.10;;;;;;4915131;29;20406;-73
2021/09/22 05:53:54;;;;;;;12.00;7.50;;;10.60;90.00;;;;;;4915127;29;20526;-73
2021/09/22 05:56:46;;;;;;;11.83;6.90;;;10.70;89.90;;;;;;4919818;29;20852;-72
2021/09/22 05:59:30;;;;;;;11.30;6.80;;;10.70;89.40;;;;;;4932898;29;20429;-73
2021/09/22 06:02:14;;;;;;;17.30;7.90;;;10.80;89.10;;;;;;4934679;29;20437;-74
2021/09/22 06:04:59;;;;;;;10.83;6.90;;;10.90;88.60;;;;;;4935482;29;20469;-73
2021/09/22 06:07:25;;;;;;;9.37;5.67;;;10.90;88.30;;;;;;4939734;29;20410;-73
2021/09/22 06:10:16;;;;;;;11.33;7.00;;;10.90;87.80;;;;;;4935238;29;20283;-74
2021/09/22 06:12:54;;;;;;;13.47;6.97;;;11.00;87.40;;;;;;4949064;29;20492;-73
2021/09/22 06:15:19;;;;;;;11.73;6.40;;;11.00;87.30;;;;;;4952175;29;20971;-73
2021/09/22 06:17:45;;;;;;;11.80;7.60;;;11.10;87.20;;;;;;4933592;29;20252;-73
2021/09/22 06:20:12;;;;;;;17.00;6.47;;;11.20;86.80;;;;;;4932162;29;20180;-73
2021/09/22 06:22:38;;;;;;;14.83;6.70;;;11.20;86.10;;;;;;4933529;29;20804;-73
2021/09/22 06:25:04;;;;;;;13.90;8.53;;;11.20;86.00;;;;;;4932494;29;20582;-73
2021/09/22 06:27:29;;;;;;;9.73;7.13;;;11.30;86.20;;;;;;4919872;29;20178;-73
2021/09/22 06:29:55;;;;;;;15.07;8.30;;;11.50;86.20;;;;;;4914348;29;20553;-73
2021/09/22 06:32:20;;;;;;;8.80;7.67;;;11.60;85.80;;;;;;4914409;29;20257;-73
2021/09/22 06:35:06;;;;;;;14.53;8.40;;;11.80;84.30;;;;;;4913718;29;20225;-73
2021/09/22 06:37:55;;;;;;;14.07;8.70;;;11.80;83.80;;;;;;4914429;29;20491;-73
2021/09/22 06:40:25;;;;;;;11.87;7.27;;;12.00;84.00;;;;;;4912959;29;20413;-73
2021/09/22 06:42:57;;;;;;;11.60;7.47;;;12.10;82.80;;;;;;4915430;29;20413;-74
2021/09/22 06:45:23;;;;;;;13.03;6.60;;;12.10;82.40;;;;;;4930358;29;20444;-73
2021/09/22 06:47:51;;;;;;;14.73;7.57;;;12.20;82.60;;;;;;4912332;29;20832;-73
2021/09/22 06:50:17;;;;;;;18.73;8.90;;;12.30;82.00;;;;;;4913154;29;20170;-73
2021/09/22 06:52:43;;;;;;;11.13;6.10;;;12.40;81.20;;;;;;4915967;29;20411;-73
2021/09/22 06:55:10;;;;;;;10.00;7.40;;;12.50;80.40;;;;;;4913042;29;21215;-73
2021/09/22 06:57:37;;;;;;;17.43;8.00;;;12.50;79.30;;;;;;4913274;29;20580;-73
2021/09/22 07:00:04;;;;;;;13.03;7.60;;;12.60;79.50;;;;;;4914197;29;20402;-73
2021/09/22 07:02:30;;;;;;;13.90;7.57;;;12.60;78.80;;;;;;4914143;29;20442;-73
2021/09/22 07:04:56;;;;;;;15.33;7.70;;;12.70;78.50;;;;;;4914326;29;20481;-73
2021/09/22 07:07:21;;;;;;;13.47;7.43;;;12.80;78.30;;;;;;4914122;29;20177;-73
2021/09/22 07:09:47;;;;;;;9.70;6.10;;;12.80;77.80;;;;;;4928225;29;20175;-73
2021/09/22 07:12:13;;;;;;;13.70;7.33;;;12.80;77.10;;;;;;4914147;29;20170;-72
2021/09/22 07:14:38;;;;;;;13.83;8.10;;;12.90;76.60;;;;;;4913445;29;20194;-72
2021/09/22 07:17:04;;;;;;;13.30;8.13;;;12.90;76.20;;;;;;4932567;29;20287;-72
2021/09/22 07:19:30;;;;;;;14.30;7.50;;;13.00;75.70;;;;;;4913614;29;20179;-74
2021/09/22 07:21:56;;;;;;;11.07;7.07;;;13.00;76.00;;;;;;4916900;29;20186;-73
2021/09/22 07:24:22;;;;;;;13.10;7.33;;;13.10;75.40;;;;;;4917550;29;20837;-73
2021/09/22 07:26:48;;;;;;;12.20;6.37;;;13.10;75.60;;;;;;4917362;29;20159;-73
2021/09/22 07:29:14;;;;;;;11.00;7.70;;;13.20;74.90;;;;;;4917872;29;20408;-73
2021/09/22 07:31:39;;;;;;;9.90;6.87;;;13.30;74.80;;;;;;4917194;29;20194;-73
2021/09/22 07:34:05;;;;;;;12.80;7.60;;;13.50;72.90;;;;;;4917737;29;20198;-74
2021/09/22 07:36:31;;;;;;;11.43;7.33;;;13.50;73.10;;;;;;4923433;29;20217;-74
2021/09/22 07:38:57;;;;;;;9.03;5.80;;;13.60;72.10;;;;;;4936457;29;20204;-74
2021/09/22 07:41:23;;;;;;;15.03;6.70;;;13.70;72.80;;;;;;4935551;29;20417;-72
2021/09/22 07:43:49;;;;;;;8.50;6.40;;;13.80;71.90;;;;;;4935952;29;20233;-73
2021/09/22 07:46:15;;;;;;;11.40;6.90;;;14.10;71.60;;;;;;4934283;29;20417;-74
2021/09/22 07:48:40;;;;;;;7.53;5.97;;;14.30;70.60;;;;;;4929807;29;20282;-74
2021/09/22 07:51:06;;;;;;;13.90;7.97;;;14.60;69.60;;;;;;4925270;29;20182;-74
2021/09/22 07:53:32;;;;;;;13.50;8.67;;;14.90;69.40;;;;;;4920237;29;20312;-73
2021/09/22 07:55:58;;;;;;;10.87;7.57;;;15.50;68.30;;;;;;4926144;29;20217;-73
2021/09/22 07:58:23;;;;;;;13.10;7.27;;;16.10;65.10;;;;;;4914987;29;20202;-73
2021/09/22 08:00:49;;;;;;;7.63;6.17;;;16.70;63.30;;;;;;4932416;29;20229;-74
2021/09/22 08:03:15;;;;;;;11.20;7.87;;;17.40;60.00;;;;;;4935462;29;20158;-73
2021/09/22 08:05:41;;;;;;;10.10;7.17;;;18.00;58.70;;;;;;4928426;29;20292;-74
2021/09/22 08:08:08;;;;;;;11.03;8.13;;;18.60;58.20;;;;;;4925849;29;20653;-73
2021/09/22 08:10:36;;;;;;;13.93;6.90;;;18.90;56.10;;;;;;4923351;29;20193;-73
2021/09/22 08:13:02;;;;;;;11.40;7.60;;;19.30;54.70;;;;;;4917079;29;20461;-73
2021/09/22 08:15:28;;;;;;;11.70;7.30;;;19.80;54.10;;;;;;4930832;29;20436;-72
2021/09/22 08:17:54;;;;;;;11.87;7.40;;;20.60;53.00;;;;;;4919224;29;20521;-72
2021/09/22 08:20:20;;;;;;;10.10;7.00;;;21.60;51.30;;;;;;4914951;29;20174;-74
2021/09/22 08:22:48;;;;;;;8.03;6.60;;;22.70;48.80;;;;;;4914614;29;20410;-75
2021/09/22 08:25:14;;;;;;;8.43;7.10;;;23.50;47.40;;;;;;4926043;29;20201;-73
2021/09/22 08:27:40;;;;;;;12.77;8.33;;;24.50;45.10;;;;;;4934689;29;20425;-74
2021/09/22 08:30:08;;;;;;;10.57;7.97;;;25.10;43.40;;;;;;4935093;29;20413;-74
2021/09/22 08:32:34;;;;;;;21.80;18.80;;;25.20;41.80;;;;;;4928492;29;20174;-72
2021/09/22 08:35:00;;;;;;;10.10;7.13;;;24.90;42.30;;;;;;4919700;29;20507;-73
2021/09/22 08:37:25;;;;;;;8.33;7.50;;;24.50;42.70;;;;;;4914100;29;20193;-73
2021/09/22 08:39:52;;;;;;;9.87;7.90;;;24.10;42.80;;;;;;4915126;29;20398;-73
2021/09/22 08:42:19;;;;;;;10.10;7.40;;;23.50;43.10;;;;;;4924728;29;20184;-73
2021/09/22 08:44:45;;;;;;;8.97;6.87;;;23.10;44.80;;;;;;4926424;29;20481;-73
2021/09/22 08:47:11;;;;;;;11.07;8.30;;;22.90;45.00;;;;;;4931352;29;20481;-72
2021/09/22 08:49:37;;;;;;;11.10;7.90;;;23.30;45.20;;;;;;4934809;29;20422;-73
2021/09/22 08:52:03;;;;;;;12.20;8.30;;;23.70;43.50;;;;;;4933980;29;20181;-74
2021/09/22 08:54:29;;;;;;;11.93;8.50;;;23.90;43.40;;;;;;4934335;29;20967;-74
2021/09/22 08:57:00;;;;;;;9.77;8.30;;;23.90;43.20;;;;;;4933239;29;20418;-74
2021/09/22 08:59:26;;;;;;;11.57;7.90;;;24.00;42.30;;;;;;4915635;29;20182;-74
2021/09/22 09:02:24;;;;;;;12.53;7.90;;;23.80;43.40;;;;;;4915178;29;20414;-73
2021/09/22 09:05:20;;;;;;;23.30;9.40;;;24.20;42.50;;;;;;4918643;29;20443;-73
2021/09/22 09:07:54;;;;;;;13.67;9.23;;;24.50;42.20;;;;;;4912543;29;20434;-72
2021/09/22 09:10:26;;;;;;;16.00;10.23;;;24.70;42.10;;;;;;4929282;29;20422;-73
2021/09/22 09:13:07;;;;;;;16.03;9.63;;;25.20;40.50;;;;;;4926825;29;20829;-74
2021/09/22 09:15:36;;;;;;;13.60;10.60;;;25.60;40.20;;;;;;4914715;29;20811;-73
2021/09/22 09:18:21;;;;;;;16.13;9.40;;;26.30;39.60;;;;;;4912963;29;21039;-74
2021/09/22 09:20:49;;;;;;;29.73;21.63;;;27.10;37.30;;;;;;4926768;29;20477;-73
2021/09/22 09:23:16;;;;;;;10.10;8.53;;;27.50;36.90;;;;;;4928291;29;20847;-74
2021/09/22 09:25:57;;;;;;;15.27;8.77;;;27.70;36.40;;;;;;4931166;29;20808;-73
2021/09/22 09:28:27;;;;;;;16.00;8.83;;;27.50;36.30;;;;;;4932935;29;20444;-74
2021/09/22 09:31:14;;;;;;;16.63;11.60;;;27.40;36.70;;;;;;4930843;29;20434;-73
2021/09/22 09:33:47;;;;;;;13.80;9.80;;;27.60;35.90;;;;;;4920220;29;20878;-74
2021/09/22 09:36:13;;;;;;;13.40;9.57;;;27.80;35.60;;;;;;4915507;29;20494;-73
2021/09/22 09:38:38;;;;;;;14.07;9.70;;;28.30;35.30;;;;;;4916449;29;20474;-74
2021/09/22 09:41:04;;;;;;;15.73;13.50;;;28.90;34.50;;;;;;4914597;29;20190;-74
2021/09/22 09:43:30;;;;;;;25.73;18.40;;;29.30;33.30;;;;;;4914951;29;20177;-73
2021/09/22 09:45:55;;;;;;;15.40;9.90;;;29.40;34.00;;;;;;4911276;29;20178;-74
2021/09/22 09:48:22;;;;;;;17.83;9.80;;;29.70;32.80;;;;;;4934028;29;20205;-73
2021/09/22 09:50:59;;;;;;;15.50;9.73;;;29.60;32.40;;;;;;4933723;29;20166;-74
2021/09/22 09:53:31;;;;;;;12.97;10.90;;;30.00;32.10;;;;;;4933453;29;20915;-74
2021/09/22 09:56:00;;;;;;;21.27;19.00;;;30.70;31.20;;;;;;4914154;29;20512;-75
2021/09/22 09:58:47;;;;;;;17.93;14.40;;;31.10;30.10;;;;;;4914490;29;20458;-73
2021/09/22 10:01:12;;;;;;;13.00;10.63;;;30.90;29.20;;;;;;4914289;29;20758;-73
2021/09/22 10:03:38;;;;;;;18.50;11.20;;;30.60;30.20;;;;;;4914526;29;20442;-74
2021/09/22 10:06:05;;;;;;;14.40;10.43;;;30.50;30.60;;;;;;4913388;29;20167;-74
2021/09/22 10:08:31;;;;;;;15.23;10.30;;;30.80;30.30;;;;;;4914449;29;20174;-74
2021/09/22 10:11:02;;;;;;;14.23;11.13;;;30.40;30.00;;;;;;4912816;29;20569;-74
2021/09/22 10:13:30;;;;;;;12.77;10.27;;;30.30;30.70;;;;;;4915069;29;20189;-73
2021/09/22 10:15:55;;;;;;;12.93;10.80;;;30.40;30.00;;;;;;4913779;29;20517;-74
2021/09/22 10:18:21;;;;;;;70.30;54.77;;;30.60;29.90;;;;;;4913244;29;20979;-73
2021/09/22 10:20:49;;;;;;;16.30;14.60;;;31.20;29.60;;;;;;4919591;29;20169;-74
2021/09/22 10:23:16;;;;;;;21.17;18.23;;;31.60;29.10;;;;;;4934509;29;20240;-74
2021/09/22 10:25:45;;;;;;;18.70;14.50;;;32.20;28.20;;;;;;4933133;29;20508;-74
2021/09/22 10:28:12;;;;;;;13.77;12.17;;;32.30;27.90;;;;;;4935141;29;20397;-74
2021/09/22 10:30:43;;;;;;;14.40;11.17;;;31.60;28.30;;;;;;4945024;29;20473;-74
2021/09/22 10:33:24;;;;;;;13.70;11.40;;;30.90;28.90;;;;;;4952719;29;20425;-73
2021/09/22 10:35:55;;;;;;;14.63;12.73;;;30.00;29.40;;;;;;4941561;29;20936;-73
2021/09/22 10:38:21;;;;;;;23.00;17.03;;;28.70;31.30;;;;;;4933032;29;20524;-74
2021/09/22 10:40:52;;;;;;;16.80;11.07;;;27.40;32.70;;;;;;4932364;29;20409;-73
2021/09/22 10:43:21;;;;;;;16.27;11.90;;;26.30;34.60;;;;;;4931592;29;20682;-73
2021/09/22 10:46:05;;;;;;;12.97;10.90;;;25.60;35.20;;;;;;4932174;29;20433;-73
2021/09/22 10:48:33;;;;;;;18.50;10.67;;;24.80;36.30;;;;;;4915728;29;21106;-74
2021/09/22 10:51:04;;;;;;;15.90;11.30;;;24.10;37.80;;;;;;4914006;29;20451;-73
2021/09/22 10:53:33;;;;;;;19.90;10.80;;;23.60;38.80;;;;;;4915434;29;20438;-73
2021/09/22 10:56:18;;;;;;;16.70;8.80;;;23.20;39.80;;;;;;4913114;29;20445;-73
2021/09/22 10:58:51;;;;;;;12.47;10.17;;;23.00;40.40;;;;;;4926583;29;20473;-74
2021/09/22 11:01:31;;;;;;;17.40;11.47;;;22.60;41.60;;;;;;4913245;29;20469;-72
2021/09/22 11:04:01;;;;;;;15.83;10.73;;;22.10;42.00;;;;;;4931471;29;20456;-73
2021/09/22 11:06:45;;;;;;;15.50;11.40;;;21.80;42.70;;;;;;4927559;29;20461;-73
2021/09/22 11:09:17;;;;;;;18.27;10.30;;;21.60;43.60;;;;;;4914914;29;20453;-74
2021/09/22 11:11:55;;;;;;;16.90;10.47;;;21.60;43.60;;;;;;4913423;29;20510;-74
2021/09/22 11:14:48;;;;;;;14.70;10.20;;;21.50;43.40;;;;;;4925154;29;20481;-73
2021/09/22 11:17:26;;;;;;;14.67;9.40;;;21.40;43.60;;;;;;4924374;29;20908;-74
2021/09/22 11:19:58;;;;;;;16.10;10.40;;;21.60;43.80;;;;;;4918956;29;20425;-73
2021/09/22 11:22:26;;;;;;;13.90;9.90;;;21.60;43.40;;;;;;4917405;29;20466;-73
2021/09/22 11:24:56;;;;;;;15.00;10.70;;;21.50;43.30;;;;;;4913903;29;20465;-73
2021/09/22 11:27:24;;;;;;;15.30;11.03;;;21.50;43.70;;;;;;4917657;29;20430;-74
2021/09/22 11:29:53;;;;;;;13.03;9.07;;;21.50;44.00;;;;;;4917060;29;20509;-74
2021/09/22 11:32:27;;;;;;;13.73;9.47;;;21.50;43.70;;;;;;4927015;29;20421;-72
2021/09/22 11:34:58;;;;;;;12.33;8.80;;;21.50;44.30;;;;;;4929119;29;20461;-74
2021/09/22 11:37:30;;;;;;;15.27;10.30;;;21.60;44.30;;;;;;4919154;29;20456;-73
2021/09/22 11:40:04;;;;;;;17.50;10.53;;;21.60;44.70;;;;;;4921615;29;20429;-73
2021/09/22 11:42:30;;;;;;;12.47;9.27;;;21.60;44.40;;;;;;4920731;29;20829;-73
2021/09/22 11:44:57;;;;;;;15.20;10.10;;;21.60;44.70;;;;;;4917626;29;20480;-73
2021/09/22 11:47:23;;;;;;;16.70;10.70;;;21.60;44.70;;;;;;4926061;29;20178;-73
2021/09/22 11:49:49;;;;;;;13.33;8.73;;;21.60;44.60;;;;;;4919451;29;20737;-74
2021/09/22 11:52:20;;;;;;;45.67;25.57;;;21.50;44.60;;;;;;4916873;29;20578;-74
2021/09/22 11:54:48;;;;;;;96.80;60.60;;;21.40;45.20;;;;;;4913325;29;20528;-72
2021/09/22 11:57:17;;;;;;;30.40;11.73;;;21.30;45.30;;;;;;4917084;29;20462;-73
2021/09/22 11:59:45;;;;;;;13.80;9.60;;;21.20;46.50;;;;;;4916901;29;20426;-73
2021/09/22 12:02:13;;;;;;;17.87;10.90;;;21.20;46.10;;;;;;4916351;29;20437;-73
2021/09/22 12:04:41;;;;;;;24.73;16.10;;;21.10;46.40;;;;;;4929184;29;20514;-73
2021/09/22 12:07:08;;;;;;;16.67;10.43;;;21.00;46.00;;;;;;4919528;29;20853;-73
2021/09/22 12:09:46;;;;;;;12.63;10.00;;;20.90;45.80;;;;;;4931844;29;20443;-72
2021/09/22 12:12:18;;;;;;;18.20;11.80;;;20.80;46.20;;;;;;4917243;29;20429;-73
2021/09/22 12:14:49;;;;;;;17.63;13.60;;;20.80;46.20;;;;;;4935446;29;20491;-73
2021/09/22 12:17:18;;;;;;;19.07;9.83;;;20.60;46.10;;;;;;4935670;29;20496;-72
2021/09/22 12:19:44;;;;;;;14.07;9.97;;;20.40;47.20;;;;;;4934094;29;20495;-72
2021/09/22 12:22:11;;;;;;;16.10;10.87;;;20.30;47.00;;;;;;4935921;29;20435;-73
2021/09/22 12:24:38;;;;;;;18.07;11.77;;;20.20;47.60;;;;;;4935856;29;20467;-71
2021/09/22 12:27:11;;;;;;;18.80;10.27;;;20.30;47.90;;;;;;4935462;29;20409;-72
2021/09/22 12:29:37;;;;;;;16.70;10.30;;;20.30;47.70;;;;;;4935594;29;20406;-72
2021/09/22 12:32:06;;;;;;;16.40;9.20;;;20.30;47.80;;;;;;4931642;29;20964;-72
2021/09/22 12:34:41;;;;;;;12.60;9.00;;;20.30;47.50;;;;;;4927656;29;20332;-72
2021/09/22 12:37:14;;;;;;;15.47;10.10;;;20.30;47.70;;;;;;4922453;29;20504;-72
2021/09/22 12:39:52;;;;;;;14.47;9.80;;;20.20;47.70;;;;;;4934989;29;20439;-72
2021/09/22 12:42:18;;;;;;;14.17;9.63;;;20.30;47.80;;;;;;4918154;29;20423;-72
2021/09/22 12:44:55;;;;;;;15.13;10.80;;;20.30;47.80;;;;;;4935942;29;20880;-74
2021/09/22 12:47:22;;;;;;;15.37;11.10;;;20.40;48.40;;;;;;4934354;29;20740;-72
2021/09/22 12:50:06;;;;;;;15.97;9.67;;;20.40;48.60;;;;;;4917868;29;20884;-74
2021/09/22 12:52:32;;;;;;;17.30;10.20;;;20.50;48.50;;;;;;4932232;29;20792;-75
2021/09/22 12:54:58;;;;;;;14.60;9.07;;;20.50;48.30;;;;;;4918021;29;21016;-73
2021/09/22 12:57:24;;;;;;;14.03;9.97;;;20.50;48.60;;;;;;4915802;29;20452;-72